Terminal Aerodrome Forecast
Issued by NWS Jacksonville, FL

Home | Current Version | Previous Version | Text Only | Print | Product List | Glossary On
Versions: 1 2 3 4 5 6 7 8 9 10 11 12 13 14 15 16 17
000
FTUS42 KJAX 221733
TAFGNV
TAF
KGNV 221733Z 2218/2318 14010KT P6SM VCTS BKN035CB
      TEMPO 2218/2222 6SM -SHRA SCT020 BKN035 OVC070
     FM222300 13006KT P6SM SCT020 BKN035 OVC100=

USA.gov is the U.S. government's official web portal to all federal, state and local government web resources and services.